Time;durP1;ratioP1;P1;durP2;ratioP2;P2;SDS_P1;SDS_P2;PMS_P1;PMS_P2;Temp;Humidity;BMP_temperature;BMP_pressure;BME280_temperature;BME280_humidity;BME280_pressure;Samples;Min_cycle;Max_cycle;Signal;HPM_P1;HPM_P2
2023/06/23 00:01:03;;;;;;;25.20;16.55;;;;;;;16.88;100.00;101742.09;5033766;28;20050;-74
2023/06/23 00:03:30;;;;;;;26.27;18.27;;;;;;;16.82;100.00;101733.50;5032116;28;20095;-73
2023/06/23 00:05:56;;;;;;;29.40;17.42;;;;;;;16.80;100.00;101750.75;5038130;28;20033;-73
2023/06/23 00:08:22;;;;;;;29.73;18.52;;;;;;;16.84;100.00;101749.53;5032293;28;20933;-73
2023/06/23 00:10:48;;;;;;;26.48;16.80;;;;;;;16.90;100.00;101751.75;5031134;28;20099;-73
2023/06/23 00:13:13;;;;;;;25.85;17.55;;;;;;;16.97;100.00;101752.19;5033577;28;20145;-73
2023/06/23 00:15:39;;;;;;;30.50;17.50;;;;;;;16.92;100.00;101759.72;5034068;28;20176;-73
2023/06/23 00:18:05;;;;;;;25.70;18.13;;;;;;;16.93;100.00;101762.31;5034440;28;20490;-73
2023/06/23 00:20:31;;;;;;;29.63;18.42;;;;;;;16.94;100.00;101764.03;5031288;28;20030;-73
2023/06/23 00:22:56;;;;;;;27.95;17.27;;;;;;;16.93;100.00;101769.53;5033239;28;20033;-73
2023/06/23 00:25:22;;;;;;;31.73;18.25;;;;;;;16.92;100.00;101765.09;5039861;28;20036;-73
2023/06/23 00:27:48;;;;;;;29.17;20.40;;;;;;;16.91;100.00;101760.69;5045161;28;20065;-73
2023/06/23 00:30:15;;;;;;;28.67;18.27;;;;;;;16.94;100.00;101771.25;5038809;28;20048;-74
2023/06/23 00:32:42;;;;;;;27.27;19.13;;;;;;;16.89;100.00;101768.91;5044357;28;20041;-73
2023/06/23 00:35:08;;;;;;;32.45;17.35;;;;;;;16.92;100.00;101766.00;5031801;28;20129;-73
2023/06/23 00:37:37;;;;;;;25.77;16.90;;;;;;;16.94;100.00;101768.56;5064679;28;20035;-73
2023/06/23 00:40:13;;;;;;;23.58;17.38;;;;;;;16.93;100.00;101772.25;5036588;28;20175;-73
2023/06/23 00:42:43;;;;;;;23.40;16.08;;;;;;;16.94;100.00;101769.41;5042432;28;20045;-74
2023/06/23 00:45:09;;;;;;;26.30;17.35;;;;;;;16.97;100.00;101766.50;5039320;28;20037;-73
2023/06/23 00:47:35;;;;;;;27.75;17.08;;;;;;;16.97;100.00;101773.75;5030996;28;20040;-74
2023/06/23 00:50:00;;;;;;;30.42;18.48;;;;;;;16.97;100.00;101758.44;5032805;28;20057;-73
2023/06/23 00:52:26;;;;;;;26.77;16.92;;;;;;;16.96;100.00;101767.47;5034346;28;20135;-73
2023/06/23 00:54:52;;;;;;;28.77;17.70;;;;;;;17.04;100.00;101767.75;5036693;28;20049;-73
2023/06/23 00:57:17;;;;;;;24.98;17.38;;;;;;;17.02;100.00;101768.84;5036694;28;20033;-73
2023/06/23 00:59:44;;;;;;;29.20;17.60;;;;;;;17.00;100.00;101760.00;5032097;28;20041;-73
2023/06/23 01:02:10;;;;;;;29.38;18.63;;;;;;;16.97;100.00;101771.03;5047698;28;20056;-73
2023/06/23 01:04:36;;;;;;;24.38;17.08;;;;;;;16.94;100.00;101787.44;5032694;28;20028;-73
2023/06/23 01:07:21;;;;;;;25.45;16.98;;;;;;;16.89;100.00;101792.31;5041091;28;20884;-73
2023/06/23 01:10:31;;;;;;;27.33;18.50;;;;;;;16.91;100.00;101801.97;5030999;28;20036;-73
2023/06/23 01:13:13;;;;;;;30.45;17.70;;;;;;;16.93;100.00;101801.88;5036082;28;20042;-73
2023/06/23 01:15:48;;;;;;;31.58;19.65;;;;;;;16.97;100.00;101796.16;5037669;28;20136;-73
2023/06/23 01:18:27;;;;;;;29.60;17.25;;;;;;;16.94;100.00;101787.44;5030650;28;20119;-74
2023/06/23 01:21:01;;;;;;;25.98;17.75;;;;;;;16.89;100.00;101793.16;5033687;28;20080;-74
2023/06/23 01:23:50;;;;;;;25.58;17.20;;;;;;;16.87;100.00;101797.81;5029618;28;21001;-73
2023/06/23 01:26:39;;;;;;;24.77;15.93;;;;;;;16.85;100.00;101805.13;5033151;28;20060;-73
2023/06/23 01:29:08;;;;;;;26.05;16.30;;;;;;;16.81;100.00;101811.72;5037507;28;20033;-73
2023/06/23 01:32:14;;;;;;;30.73;18.48;;;;;;;16.80;100.00;101823.47;5040404;28;20088;-73
2023/06/23 01:34:44;;;;;;;28.20;17.55;;;;;;;16.77;100.00;101826.41;5009449;28;20546;-74
2023/06/23 01:37:19;;;;;;;25.92;16.88;;;;;;;16.79;100.00;101825.31;5026383;28;20093;-73
2023/06/23 01:39:52;;;;;;;26.13;16.70;;;;;;;16.69;100.00;101832.31;5026581;28;20904;-73
2023/06/23 01:42:22;;;;;;;27.67;18.30;;;;;;;16.71;100.00;101838.47;5010014;28;20729;-73
2023/06/23 01:44:55;;;;;;;23.02;16.85;;;;;;;16.68;100.00;101841.38;5008858;28;20153;-73
2023/06/23 01:47:26;;;;;;;30.67;19.15;;;;;;;16.69;100.00;101840.41;5008701;28;20636;-73
2023/06/23 01:49:54;;;;;;;29.85;18.35;;;;;;;16.59;100.00;101847.44;5009910;28;20979;-73
2023/06/23 01:52:21;;;;;;;31.35;20.13;;;;;;;16.61;100.00;101858.06;5026165;28;20178;-73
2023/06/23 01:54:49;;;;;;;32.85;19.50;;;;;;;16.53;100.00;101856.81;5026564;28;20037;-74
2023/06/23 01:57:17;;;;;;;30.60;19.23;;;;;;;16.48;100.00;101863.50;5027091;28;20065;-73
2023/06/23 01:59:44;;;;;;;29.85;19.60;;;;;;;16.43;100.00;101861.13;4991474;28;20038;-74
2023/06/23 02:02:12;;;;;;;30.58;20.35;;;;;;;16.49;100.00;101863.38;5041931;28;20072;-74
2023/06/23 02:04:41;;;;;;;31.05;19.60;;;;;;;16.35;100.00;101866.19;5027810;28;20049;-73
2023/06/23 02:07:11;;;;;;;33.92;21.60;;;;;;;16.30;100.00;101866.53;5011242;28;20358;-73
2023/06/23 02:09:40;;;;;;;35.70;21.42;;;;;;;16.21;100.00;101877.94;5039615;28;20060;-73
2023/06/23 02:12:08;;;;;;;33.67;21.63;;;;;;;16.28;100.00;101881.94;5047193;28;20086;-73
2023/06/23 02:14:37;;;;;;;28.05;20.02;;;;;;;16.25;100.00;101881.28;5034480;28;20063;-73
2023/06/23 02:17:05;;;;;;;36.17;22.58;;;;;;;16.22;100.00;101878.81;5037689;28;20044;-73
2023/06/23 02:19:32;;;;;;;34.53;22.13;;;;;;;16.21;100.00;101885.16;5035634;28;20048;-73
2023/06/23 02:21:59;;;;;;;34.83;20.92;;;;;;;16.18;100.00;101888.94;5040193;28;20468;-74
2023/06/23 02:24:25;;;;;;;37.75;21.77;;;;;;;16.14;100.00;101900.88;5034656;28;20050;-73
2023/06/23 02:26:52;;;;;;;36.90;22.83;;;;;;;16.18;100.00;101890.78;5032550;28;20091;-73
2023/06/23 02:29:20;;;;;;;37.33;22.58;;;;;;;16.13;100.00;101903.69;5037221;28;20935;-73
2023/06/23 02:31:46;;;;;;;37.00;22.63;;;;;;;16.15;100.00;101904.44;5032938;28;20034;-73
2023/06/23 02:34:12;;;;;;;41.60;25.98;;;;;;;16.16;100.00;101909.69;5036717;28;20046;-73
2023/06/23 02:36:47;;;;;;;34.75;24.23;;;;;;;16.07;100.00;101912.19;5042657;28;20055;-73
2023/06/23 02:39:20;;;;;;;42.33;25.42;;;;;;;16.04;100.00;101915.94;5049970;28;20645;-74
2023/06/23 02:41:52;;;;;;;39.38;25.67;;;;;;;16.00;100.00;101919.81;5050946;28;20033;-73
2023/06/23 02:44:24;;;;;;;41.83;24.65;;;;;;;15.97;100.00;101923.59;5046187;28;20986;-73
2023/06/23 02:46:55;;;;;;;36.33;23.85;;;;;;;16.00;100.00;101930.56;5049222;28;20050;-73
2023/06/23 02:49:24;;;;;;;35.53;24.20;;;;;;;15.99;100.00;101937.78;5051595;28;20032;-73
2023/06/23 02:51:55;;;;;;;38.08;23.83;;;;;;;15.97;100.00;101949.63;5044985;28;20152;-73
2023/06/23 02:54:23;;;;;;;38.75;24.85;;;;;;;15.92;100.00;101946.41;5078412;28;20045;-73
2023/06/23 02:56:53;;;;;;;41.85;26.90;;;;;;;15.93;100.00;101957.03;5053246;28;20029;-73
2023/06/23 02:59:21;;;;;;;38.72;25.48;;;;;;;15.94;100.00;101949.81;5050083;28;21019;-73
2023/06/23 03:01:52;;;;;;;44.63;26.27;;;;;;;15.89;100.00;101957.34;5050024;28;20077;-73
2023/06/23 03:04:18;;;;;;;46.25;25.92;;;;;;;15.83;100.00;101957.78;5047380;28;20112;-73
2023/06/23 03:06:44;;;;;;;39.88;26.60;;;;;;;15.83;100.00;101969.38;5047544;28;20045;-73
2023/06/23 03:09:11;;;;;;;41.30;26.48;;;;;;;15.84;100.00;101963.03;5055229;28;20033;-73
2023/06/23 03:11:37;;;;;;;43.42;26.73;;;;;;;15.84;100.00;101968.41;5040643;28;20034;-72
2023/06/23 03:14:06;;;;;;;45.20;26.95;;;;;;;15.84;100.00;101981.00;5042678;28;20350;-73
2023/06/23 03:16:44;;;;;;;35.90;26.58;;;;;;;15.84;100.00;101983.69;5047934;28;20071;-73
2023/06/23 03:19:10;;;;;;;42.10;25.65;;;;;;;15.94;100.00;101988.34;5037997;28;20037;-73
2023/06/23 03:21:39;;;;;;;45.88;27.48;;;;;;;15.81;100.00;102003.56;5051767;28;20044;-73
2023/06/23 03:24:12;;;;;;;42.45;27.75;;;;;;;15.86;100.00;101989.81;5036031;28;20037;-73
2023/06/23 03:26:45;;;;;;;43.53;27.98;;;;;;;15.82;100.00;101993.72;5039298;28;20048;-74
2023/06/23 03:29:12;;;;;;;43.85;25.95;;;;;;;15.80;100.00;101997.34;5071341;28;20030;-73
2023/06/23 03:31:42;;;;;;;51.42;28.95;;;;;;;15.83;100.00;102000.81;5039480;28;20065;-74
2023/06/23 03:34:09;;;;;;;42.97;28.42;;;;;;;15.92;100.00;102002.88;5036387;28;20195;-73
2023/06/23 03:36:38;;;;;;;46.25;29.35;;;;;;;15.97;100.00;102000.75;5040369;28;20364;-73
2023/06/23 03:39:17;;;;;;;49.30;29.85;;;;;;;15.94;100.00;102004.50;5066689;28;20104;-73
2023/06/23 03:41:44;;;;;;;51.25;30.75;;;;;;;15.94;100.00;102004.50;5037507;28;20123;-73
2023/06/23 03:44:28;;;;;;;45.00;29.83;;;;;;;15.95;100.00;102008.03;5035507;28;20034;-73
2023/06/23 03:47:00;;;;;;;53.60;32.10;;;;;;;16.09;100.00;102021.44;5034653;28;20060;-73
2023/06/23 03:49:37;;;;;;;51.50;31.83;;;;;;;16.07;100.00;102017.13;5040044;28;20037;-73
2023/06/23 03:52:05;;;;;;;51.00;32.75;;;;;;;16.08;100.00;102014.31;5033387;28;20053;-73
2023/06/23 03:54:33;;;;;;;48.33;30.58;;;;;;;16.04;100.00;102013.66;5045024;28;20123;-74
2023/06/23 03:57:02;;;;;;;56.90;33.67;;;;;;;16.11;100.00;102011.41;5040193;28;20029;-73
2023/06/23 03:59:29;;;;;;;53.10;33.65;;;;;;;16.11;100.00;102018.63;5036608;28;20040;-74
2023/06/23 04:01:56;;;;;;;58.72;34.72;;;;;;;16.15;100.00;102012.06;5035044;28;20044;-73
2023/06/23 04:04:23;;;;;;;56.25;34.65;;;;;;;16.13;100.00;102020.25;5034344;28;20219;-74
2023/06/23 04:06:51;;;;;;;54.35;33.60;;;;;;;16.22;100.00;102008.00;5034727;28;20037;-74
2023/06/23 04:09:19;;;;;;;51.60;33.00;;;;;;;16.21;100.00;102012.50;5037156;28;20044;-74
2023/06/23 04:11:48;;;;;;;55.53;34.88;;;;;;;16.30;100.00;102013.72;5049950;28;20033;-74
2023/06/23 04:14:17;;;;;;;54.60;34.33;;;;;;;16.30;100.00;102011.03;5039134;28;20139;-74
2023/06/23 04:16:45;;;;;;;52.92;33.60;;;;;;;16.45;100.00;102019.88;5032834;28;20033;-73
2023/06/23 04:19:13;;;;;;;44.53;31.27;;;;;;;16.75;100.00;102012.38;5030938;28;20036;-73
2023/06/23 04:21:40;;;;;;;56.03;33.53;;;;;;;17.01;100.00;102002.41;5040804;28;20040;-73
2023/06/23 04:24:08;;;;;;;43.95;31.17;;;;;;;17.04;100.00;102001.34;5033659;28;20041;-74
2023/06/23 04:26:35;;;;;;;50.85;33.10;;;;;;;16.98;100.00;102002.66;5042375;28;20152;-74
2023/06/23 04:29:04;;;;;;;45.63;30.23;;;;;;;17.03;100.00;102005.88;5039351;28;20122;-73
2023/06/23 04:31:32;;;;;;;49.38;31.08;;;;;;;17.01;100.00;102004.25;5032844;28;20189;-73
2023/06/23 04:33:58;;;;;;;46.50;30.23;;;;;;;17.22;100.00;102001.84;5038719;28;20046;-74
2023/06/23 04:36:29;;;;;;;58.72;34.20;;;;;;;17.43;100.00;102004.81;5043435;28;20036;-74
2023/06/23 04:39:06;;;;;;;44.15;29.60;;;;;;;17.47;100.00;102003.59;5033676;28;20030;-74
2023/06/23 04:41:37;;;;;;;61.40;35.22;;;;;;;17.40;100.00;102002.34;5035628;28;20615;-74
2023/06/23 04:44:09;;;;;;;51.78;31.20;;;;;;;17.69;100.00;102006.44;5029504;28;20041;-74
2023/06/23 04:46:38;;;;;;;44.10;29.60;;;;;;;18.10;100.00;102003.31;5032981;28;20153;-74
2023/06/23 04:49:08;;;;;;;42.90;30.30;;;;;;;19.78;100.00;101988.09;5035372;28;20452;-74
2023/06/23 04:51:39;;;;;;;39.05;28.42;;;;;;;21.01;100.00;101968.38;5045010;28;20049;-74
2023/06/23 04:54:11;;;;;;;37.07;26.50;;;;;;;21.85;100.00;101966.13;5042468;28;20042;-74
2023/06/23 04:56:40;;;;;;;39.13;28.58;;;;;;;22.84;100.00;101969.38;5067834;28;20043;-75
2023/06/23 04:59:09;;;;;;;36.05;26.73;;;;;;;23.31;100.00;101965.72;5045157;28;20040;-74
2023/06/23 05:01:37;;;;;;;40.80;27.35;;;;;;;23.59;100.00;101971.94;5046629;28;20040;-74
2023/06/23 05:04:04;;;;;;;32.20;24.52;;;;;;;22.95;100.00;101981.97;5031663;28;20041;-75
2023/06/23 05:06:33;;;;;;;37.67;26.55;;;;;;;22.89;100.00;101983.41;5038413;28;20589;-73
2023/06/23 05:08:59;;;;;;;31.63;24.52;;;;;;;23.06;100.00;101992.63;5032593;28;20832;-73
2023/06/23 05:11:26;;;;;;;30.13;25.05;;;;;;;23.28;100.00;101985.91;5035765;28;20985;-73
2023/06/23 05:13:53;;;;;;;33.00;25.33;;;;;;;23.51;100.00;101994.53;5042185;28;20061;-72
2023/06/23 05:16:19;;;;;;;34.25;24.17;;;;;;;23.69;100.00;102005.47;5045732;28;20030;-72
2023/06/23 05:18:47;;;;;;;32.28;24.30;;;;;;;22.98;100.00;102006.13;5047943;28;20104;-73
2023/06/23 05:21:18;;;;;;;38.65;25.80;;;;;;;22.00;100.00;102017.31;5046021;28;20067;-74
2023/06/23 05:23:47;;;;;;;37.33;26.75;;;;;;;20.68;100.00;102018.31;5047981;28;20080;-73
2023/06/23 05:26:14;;;;;;;36.67;27.15;;;;;;;20.28;100.00;102029.88;5042701;28;20068;-73
2023/06/23 05:28:43;;;;;;;42.83;29.48;;;;;;;20.05;100.00;102033.69;5041263;28;20554;-73
2023/06/23 05:31:11;;;;;;;49.50;34.10;;;;;;;20.11;100.00;102025.03;5032263;28;20111;-72
2023/06/23 05:33:40;;;;;;;46.15;32.40;;;;;;;20.07;100.00;102031.69;5041248;28;20041;-73
2023/06/23 05:36:11;;;;;;;35.55;28.35;;;;;;;20.95;100.00;102028.59;5034352;28;20569;-73
2023/06/23 05:38:41;;;;;;;44.40;30.70;;;;;;;21.86;100.00;102013.16;5031516;28;20677;-73
2023/06/23 05:41:07;;;;;;;35.70;26.98;;;;;;;22.84;100.00;102009.28;5032690;28;20044;-72
2023/06/23 05:43:32;;;;;;;33.58;27.15;;;;;;;23.42;100.00;102007.19;5041626;28;20044;-73
2023/06/23 05:45:59;;;;;;;38.58;28.02;;;;;;;23.87;100.00;102010.94;5036765;28;20044;-73
2023/06/23 05:48:45;;;;;;;36.33;28.52;;;;;;;24.60;100.00;102011.56;5033575;28;20570;-73
2023/06/23 05:51:16;;;;;;;32.80;25.40;;;;;;;24.42;100.00;102008.88;5034473;28;21101;-73
2023/06/23 05:53:43;;;;;;;31.40;24.90;;;;;;;24.42;100.00;102016.19;5033538;28;20152;-72
2023/06/23 05:56:17;;;;;;;29.55;23.40;;;;;;;24.55;100.00;102013.91;5032763;28;20865;-73
2023/06/23 05:58:49;;;;;;;30.02;23.52;;;;;;;24.89;100.00;102003.00;5030408;28;20124;-73
2023/06/23 06:01:19;;;;;;;27.88;21.63;;;;;;;24.68;100.00;102006.13;5037220;28;20037;-73
2023/06/23 06:03:47;;;;;;;23.77;20.38;;;;;;;24.92;100.00;102008.16;5031787;28;20040;-74
2023/06/23 06:06:15;;;;;;;21.45;19.00;;;;;;;24.58;100.00;102013.56;5031794;28;20124;-75
2023/06/23 06:08:42;;;;;;;27.00;21.65;;;;;;;24.44;100.00;102020.47;5033746;28;20037;-72
2023/06/23 06:11:10;;;;;;;29.65;23.25;;;;;;;25.03;100.00;102023.38;5031886;28;20133;-73
2023/06/23 06:13:43;;;;;;;31.50;25.00;;;;;;;24.62;100.00;102027.75;5032935;28;20037;-73
2023/06/23 06:16:09;;;;;;;32.10;25.42;;;;;;;24.77;100.00;102039.78;5033215;28;20113;-73
2023/06/23 06:18:37;;;;;;;31.45;25.38;;;;;;;24.68;100.00;102047.06;5041478;28;20068;-73
2023/06/23 06:21:04;;;;;;;26.67;23.63;;;;;;;24.48;100.00;102053.72;5037493;28;20055;-73
2023/06/23 06:23:31;;;;;;;26.55;22.67;;;;;;;24.26;100.00;102050.47;5033989;28;20203;-73
2023/06/23 06:25:59;;;;;;;28.70;22.60;;;;;;;24.32;100.00;102051.69;5039931;28;20033;-73
2023/06/23 06:28:26;;;;;;;25.63;22.30;;;;;;;24.14;100.00;102056.31;5033211;28;20038;-73
2023/06/23 06:30:54;;;;;;;25.33;21.08;;;;;;;24.45;100.00;102054.91;5071721;28;21031;-73
2023/06/23 06:33:21;;;;;;;25.30;21.38;;;;;;;24.32;100.00;102059.88;5037051;28;20041;-73
2023/06/23 06:35:48;;;;;;;25.45;20.95;;;;;;;24.52;100.00;102071.50;5033177;28;20787;-72
2023/06/23 06:38:15;;;;;;;28.98;23.63;;;;;;;24.58;100.00;102064.56;5043201;28;20034;-73
2023/06/23 06:40:46;;;;;;;27.67;23.52;;;;;;;24.08;100.00;102074.13;5034569;28;20036;-73
2023/06/23 06:43:12;;;;;;;27.48;24.08;;;;;;;24.59;100.00;102075.28;5033895;28;20041;-73
2023/06/23 06:45:40;;;;;;;25.25;22.02;;;;;;;24.31;100.00;102076.41;5033524;28;20041;-75
2023/06/23 06:48:09;;;;;;;26.77;22.63;;;;;;;24.49;100.00;102078.09;5043220;28;20029;-72
2023/06/23 06:50:35;;;;;;;26.38;22.73;;;;;;;24.24;100.00;102078.88;5041666;28;20037;-73
2023/06/23 06:53:02;;;;;;;25.63;22.85;;;;;;;24.53;100.00;102090.41;5051461;28;20049;-73
2023/06/23 06:55:28;;;;;;;29.73;23.88;;;;;;;24.21;100.00;102095.56;5047383;28;20054;-73
2023/06/23 06:57:54;;;;;;;30.98;23.92;;;;;;;24.61;100.00;102089.66;5035620;28;20045;-73
2023/06/23 07:00:22;;;;;;;29.42;22.83;;;;;;;24.62;100.00;102090.50;5041113;28;20033;-73
2023/06/23 07:02:48;;;;;;;29.58;22.35;;;;;;;24.43;100.00;102092.38;5040489;28;20052;-73
2023/06/23 07:05:14;;;;;;;28.98;23.30;;;;;;;24.45;100.00;102106.75;5036161;28;20082;-73
2023/06/23 07:07:40;;;;;;;29.00;23.00;;;;;;;24.51;100.00;102102.53;5041248;28;20052;-73
2023/06/23 07:10:06;;;;;;;27.50;23.00;;;;;;;24.38;100.00;102116.53;5041559;28;20044;-71
2023/06/23 07:12:31;;;;;;;26.27;21.85;;;;;;;24.27;100.00;102108.56;5049161;28;20048;-73
2023/06/23 07:14:57;;;;;;;25.17;21.23;;;;;;;23.85;100.00;102111.91;5037595;28;20042;-73
2023/06/23 07:17:23;;;;;;;27.80;23.33;;;;;;;23.94;100.00;102118.28;5044334;28;20030;-73
2023/06/23 07:19:48;;;;;;;26.10;21.15;;;;;;;24.11;100.00;102112.00;5039297;28;20817;-75
2023/06/23 07:22:14;;;;;;;36.05;21.90;;;;;;;24.04;100.00;102117.19;5052727;28;20929;-73
2023/06/23 07:24:40;;;;;;;28.05;21.90;;;;;;;24.08;100.00;102122.34;5041696;28;20101;-73
2023/06/23 07:27:08;;;;;;;26.33;20.60;;;;;;;23.93;100.00;102120.16;5042404;28;20038;-75
2023/06/23 07:29:34;;;;;;;25.45;21.40;;;;;;;23.87;100.00;102119.91;5047855;28;20036;-75
2023/06/23 07:32:01;;;;;;;29.83;22.17;;;;;;;23.55;100.00;102125.81;5053700;28;20754;-74
2023/06/23 07:34:28;;;;;;;27.75;21.58;;;;;;;23.61;100.00;102119.75;5043391;28;20347;-73
2023/06/23 07:36:57;;;;;;;25.45;20.27;;;;;;;23.84;100.00;102128.38;5048085;28;20040;-74
2023/06/23 07:39:22;;;;;;;26.23;21.67;;;;;;;23.91;100.00;102127.63;5042493;28;20093;-74
2023/06/23 07:41:48;;;;;;;28.60;22.33;;;;;;;23.84;100.00;102131.09;5048782;28;20401;-74
2023/06/23 07:44:14;;;;;;;24.02;18.70;;;;;;;24.26;100.00;102125.94;5050838;28;20037;-74
2023/06/23 07:46:39;;;;;;;23.45;15.65;;;;;;;24.19;100.00;102117.50;5046412;28;20684;-74
2023/06/23 07:49:05;;;;;;;16.80;13.15;;;;;;;24.27;100.00;102124.94;5047910;28;20530;-74
2023/06/23 07:51:31;;;;;;;18.25;13.68;;;;;;;24.04;100.00;102119.91;5045929;28;20049;-74
2023/06/23 07:53:56;;;;;;;15.40;11.00;;;;;;;24.15;100.00;102118.88;5046216;28;20578;-74
2023/06/23 07:56:22;;;;;;;16.35;11.65;;;;;;;24.21;100.00;102111.94;5057780;28;20036;-74
2023/06/23 07:58:48;;;;;;;17.52;12.40;;;;;;;24.04;100.00;102108.16;5052795;28;20529;-74
2023/06/23 08:01:13;;;;;;;15.55;12.60;;;;;;;24.49;100.00;102115.44;5059067;28;20839;-73
2023/06/23 08:03:39;;;;;;;13.20;10.43;;;;;;;24.12;100.00;102112.84;5049884;28;20037;-74
2023/06/23 08:06:05;;;;;;;12.90;9.65;;;;;;;24.05;100.00;102120.81;5054632;28;20821;-74
2023/06/23 08:08:32;;;;;;;11.52;9.85;;;;;;;24.29;100.00;102128.34;5053331;28;20033;-74
2023/06/23 08:10:58;;;;;;;12.68;9.55;;;;;;;24.41;100.00;102120.84;5051471;28;20044;-74
2023/06/23 08:13:23;;;;;;;12.40;9.55;;;;;;;24.34;100.00;102123.28;5051997;28;20037;-74
2023/06/23 08:15:49;;;;;;;10.27;9.27;;;;;;;24.53;100.00;102122.31;5047854;28;20025;-74
2023/06/23 08:18:15;;;;;;;11.13;8.15;;;;;;;24.45;100.00;102124.94;5059277;28;20565;-74
2023/06/23 08:20:40;;;;;;;9.55;7.82;;;;;;;24.47;100.00;102131.97;5052264;28;20037;-74
2023/06/23 08:23:06;;;;;;;11.10;8.73;;;;;;;24.26;100.00;102134.97;5054384;28;20032;-74
2023/06/23 08:25:32;;;;;;;11.32;9.02;;;;;;;24.59;100.00;102137.19;5054314;28;20033;-74
2023/06/23 08:27:58;;;;;;;12.75;8.65;;;;;;;24.42;100.00;102144.38;5047231;28;20043;-74
2023/06/23 08:30:32;;;;;;;9.45;7.70;;;;;;;24.36;100.00;102142.28;5051555;28;20064;-75
2023/06/23 08:32:58;;;;;;;11.07;7.85;;;;;;;24.41;97.64;102145.38;5049763;28;20045;-73
2023/06/23 08:35:23;;;;;;;14.20;8.65;;;;;;;24.37;100.00;102160.34;5040644;28;20037;-75
2023/06/23 08:37:49;;;;;;;12.30;8.95;;;;;;;24.50;100.00;102156.22;5048636;28;20037;-74
2023/06/23 08:40:15;;;;;;;13.05;8.13;;;;;;;24.85;100.00;102143.56;5047197;28;20037;-72
2023/06/23 08:42:41;;;;;;;9.88;8.70;;;;;;;24.87;100.00;102157.03;5041345;28;20045;-73
2023/06/23 08:45:08;;;;;;;14.95;9.93;;;;;;;25.10;100.00;102147.31;5039479;28;20127;-74
2023/06/23 08:47:41;;;;;;;12.57;9.88;;;;;;;24.77;100.00;102155.25;5046366;28;20036;-74
2023/06/23 08:50:08;;;;;;;12.63;8.73;;;;;;;24.95;98.80;102155.22;5041403;28;20033;-74
2023/06/23 08:52:34;;;;;;;12.63;9.40;;;;;;;24.95;99.80;102173.44;5045267;28;20102;-72
2023/06/23 08:55:02;;;;;;;12.68;10.10;;;;;;;25.14;100.00;102154.16;5046056;28;20060;-71
2023/06/23 08:57:27;;;;;;;12.65;10.73;;;;;;;25.22;100.00;102164.31;5047894;28;20063;-72
2023/06/23 08:59:53;;;;;;;17.98;12.80;;;;;;;25.36;100.00;102166.44;5046232;28;20043;-74
2023/06/23 09:02:19;;;;;;;15.07;13.00;;;;;;;25.92;100.00;102166.91;5044755;28;20343;-74
2023/06/23 09:04:44;;;;;;;14.88;10.55;;;;;;;25.19;98.58;102162.72;5040002;28;20045;-74
2023/06/23 09:07:11;;;;;;;11.43;9.75;;;;;;;25.14;100.00;102172.44;5042307;28;20316;-74
2023/06/23 09:09:36;;;;;;;11.95;9.52;;;;;;;25.64;100.00;102171.69;5045474;28;20041;-75
2023/06/23 09:12:02;;;;;;;11.27;8.77;;;;;;;25.78;100.00;102173.84;5041517;28;20040;-75
2023/06/23 09:14:33;;;;;;;11.23;8.48;;;;;;;25.99;100.00;102173.41;5040131;28;20330;-74
2023/06/23 09:16:59;;;;;;;13.77;10.27;;;;;;;26.06;100.00;102167.13;5037986;28;20037;-75
2023/06/23 09:19:26;;;;;;;10.32;8.13;;;;;;;25.85;95.50;102174.03;5044276;28;20138;-74
2023/06/23 09:21:54;;;;;;;10.13;7.93;;;;;;;25.67;92.56;102171.38;5042469;28;20117;-74
2023/06/23 09:24:20;;;;;;;11.82;8.70;;;;;;;25.52;90.57;102169.25;5044701;28;20044;-74
2023/06/23 09:26:50;;;;;;;7.80;6.82;;;;;;;25.48;93.59;102175.22;5049428;28;20033;-74
2023/06/23 09:29:18;;;;;;;8.45;6.53;;;;;;;25.65;91.59;102181.59;5039120;28;20041;-74
2023/06/23 09:31:46;;;;;;;6.75;6.07;;;;;;;25.54;86.00;102183.59;5036084;28;20052;-75
2023/06/23 09:34:33;;;;;;;9.68;6.40;;;;;;;25.61;87.11;102197.47;5032224;28;20033;-73
2023/06/23 09:37:12;;;;;;;6.70;4.97;;;;;;;25.62;86.63;102195.59;5039753;28;20106;-74
2023/06/23 09:39:44;;;;;;;11.43;6.28;;;;;;;25.70;86.96;102192.88;5041980;28;20438;-74
2023/06/23 09:42:13;;;;;;;8.18;6.15;;;;;;;25.56;92.58;102191.66;5045457;28;20272;-74
2023/06/23 09:44:41;;;;;;;6.68;5.80;;;;;;;25.60;87.85;102197.63;5037557;28;20464;-74
2023/06/23 09:47:07;;;;;;;7.50;5.85;;;;;;;25.73;86.28;102195.31;5038771;28;20041;-75
2023/06/23 09:49:47;;;;;;;6.68;5.80;;;;;;;25.63;83.02;102205.50;5037662;28;20071;-74
2023/06/23 09:52:21;;;;;;;7.30;6.10;;;;;;;25.78;84.94;102199.28;5027767;28;20114;-73
2023/06/23 09:54:47;;;;;;;7.55;5.88;;;;;;;25.78;80.20;102209.38;5044027;28;20059;-74
2023/06/23 09:57:15;;;;;;;6.53;5.43;;;;;;;25.86;76.51;102205.84;5041282;28;21094;-74
2023/06/23 09:59:42;;;;;;;7.30;5.30;;;;;;;25.68;83.90;102211.34;5030272;28;20155;-74
2023/06/23 10:02:18;;;;;;;6.53;5.70;;;;;;;26.13;86.70;102205.56;5042547;28;20905;-74
2023/06/23 10:04:44;;;;;;;6.45;4.97;;;;;;;25.63;71.89;102213.72;5038042;28;20152;-74
2023/06/23 10:07:23;;;;;;;7.43;5.80;;;;;;;26.11;76.33;102212.25;5041902;28;20036;-74
2023/06/23 10:09:53;;;;;;;6.00;5.28;;;;;;;25.85;73.36;102204.09;5028382;28;20056;-74
2023/06/23 10:12:26;;;;;;;7.35;6.65;;;;;;;25.76;76.04;102206.81;5030821;28;20037;-74
2023/06/23 10:14:53;;;;;;;7.85;6.10;;;;;;;26.41;81.58;102206.19;5030076;28;20045;-74
2023/06/23 10:17:19;;;;;;;7.72;6.90;;;;;;;26.22;75.19;102203.72;5030760;28;20127;-74
2023/06/23 10:19:52;;;;;;;7.05;6.07;;;;;;;26.17;84.03;102204.22;5031008;28;20090;-74
2023/06/23 10:22:20;;;;;;;6.07;5.43;;;;;;;26.48;78.11;102200.91;5029285;28;20041;-74
2023/06/23 10:24:49;;;;;;;8.13;5.93;;;;;;;26.56;74.65;102195.47;5030704;28;20037;-74
2023/06/23 10:27:21;;;;;;;6.13;5.43;;;;;;;26.19;77.99;102199.44;5029972;28;20656;-74
2023/06/23 10:29:53;;;;;;;7.60;5.82;;;;;;;26.51;82.25;102206.91;5029786;28;20140;-74
2023/06/23 10:32:26;;;;;;;9.45;5.85;;;;;;;26.39;76.33;102204.63;5029484;28;20087;-74
2023/06/23 10:34:55;;;;;;;6.07;5.45;;;;;;;26.50;76.37;102204.31;5030513;28;20025;-74
2023/06/23 10:37:23;;;;;;;5.68;4.90;;;;;;;26.54;77.66;102198.34;5028942;28;20029;-73
2023/06/23 10:40:03;;;;;;;6.70;6.00;;;;;;;26.10;72.83;102200.44;5028001;28;20044;-73
2023/06/23 10:42:33;;;;;;;9.10;6.00;;;;;;;26.15;78.70;102205.41;5030238;28;20033;-73
2023/06/23 10:45:00;;;;;;;8.35;6.03;;;;;;;26.02;71.21;102201.28;5029446;28;20723;-73
2023/06/23 10:47:27;;;;;;;10.18;5.70;;;;;;;26.33;72.34;102212.47;5030218;28;20036;-73
2023/06/23 10:49:53;;;;;;;6.72;5.20;;;;;;;26.37;72.26;102207.53;5028776;28;20041;-73
2023/06/23 10:52:19;;;;;;;6.75;5.82;;;;;;;26.32;73.29;102196.25;5027971;28;20148;-73
2023/06/23 10:54:45;;;;;;;7.60;5.45;;;;;;;26.16;75.96;102198.94;5028988;28;20144;-73
2023/06/23 10:57:14;;;;;;;6.82;5.55;;;;;;;26.38;74.21;102203.75;5036791;28;20038;-74
2023/06/23 10:59:57;;;;;;;8.50;5.03;;;;;;;26.38;70.20;102203.75;5035695;28;20029;-72
2023/06/23 11:02:23;;;;;;;7.40;6.00;;;;;;;26.62;74.83;102204.88;5035772;28;20028;-73
2023/06/23 11:05:03;;;;;;;10.23;5.50;;;;;;;26.70;74.56;102207.59;5034825;28;20978;-75
2023/06/23 11:07:29;;;;;;;9.63;5.70;;;;;;;26.48;70.70;102203.66;5033499;28;20048;-72
2023/06/23 11:09:57;;;;;;;6.32;5.72;;;;;;;26.58;79.20;102207.09;5037212;28;20044;-74
2023/06/23 11:12:42;;;;;;;6.00;5.32;;;;;;;26.33;70.58;102214.34;5034723;28;20941;-74
2023/06/23 11:15:20;;;;;;;6.93;5.10;;;;;;;26.71;70.93;102209.31;5037552;28;20033;-73